sensor_id;sensor_type;location;lat;lon;timestamp;temperature;humidity
21035;DHT22;10676;50.848;3.272;2023-07-09T00:01:33;22.00;99.90
21035;DHT22;10676;50.848;3.272;2023-07-09T00:03:59;21.90;99.90
21035;DHT22;10676;50.848;3.272;2023-07-09T00:06:24;21.90;99.90
21035;DHT22;10676;50.848;3.272;2023-07-09T00:08:50;21.80;99.90
21035;DHT22;10676;50.848;3.272;2023-07-09T00:11:16;21.70;99.90
21035;DHT22;10676;50.848;3.272;2023-07-09T00:13:42;21.70;99.90
21035;DHT22;10676;50.848;3.272;2023-07-09T00:16:16;21.60;99.90
21035;DHT22;10676;50.848;3.272;2023-07-09T00:18:44;21.60;99.90
21035;DHT22;10676;50.848;3.272;2023-07-09T00:21:10;21.50;99.90
21035;DHT22;10676;50.848;3.272;2023-07-09T00:23:36;21.50;99.90
21035;DHT22;10676;50.848;3.272;2023-07-09T00:26:10;21.40;99.90
21035;DHT22;10676;50.848;3.272;2023-07-09T00:28:39;21.40;99.90
21035;DHT22;10676;50.848;3.272;2023-07-09T00:31:05;21.30;99.90
21035;DHT22;10676;50.848;3.272;2023-07-09T00:33:31;21.30;99.90
21035;DHT22;10676;50.848;3.272;2023-07-09T00:35:58;21.20;99.90
21035;DHT22;10676;50.848;3.272;2023-07-09T00:38:24;21.20;99.90
21035;DHT22;10676;50.848;3.272;2023-07-09T00:43:28;21.10;99.90
21035;DHT22;10676;50.848;3.272;2023-07-09T00:48:43;20.90;99.90
21035;DHT22;10676;50.848;3.272;2023-07-09T00:51:14;20.90;99.90
21035;DHT22;10676;50.848;3.272;2023-07-09T00:53:43;20.80;99.90
21035;DHT22;10676;50.848;3.272;2023-07-09T00:56:23;20.80;99.90
21035;DHT22;10676;50.848;3.272;2023-07-09T00:58:52;20.70;99.90
21035;DHT22;10676;50.848;3.272;2023-07-09T01:01:19;20.70;99.90
21035;DHT22;10676;50.848;3.272;2023-07-09T01:03:48;20.70;99.90
21035;DHT22;10676;50.848;3.272;2023-07-09T01:06:23;20.60;99.90
21035;DHT22;10676;50.848;3.272;2023-07-09T01:08:51;20.50;99.90
21035;DHT22;10676;50.848;3.272;2023-07-09T01:11:21;20.40;99.90
21035;DHT22;10676;50.848;3.272;2023-07-09T01:13:54;20.30;99.90
21035;DHT22;10676;50.848;3.272;2023-07-09T01:16:21;20.20;99.90
21035;DHT22;10676;50.848;3.272;2023-07-09T01:18:50;20.20;99.90
21035;DHT22;10676;50.848;3.272;2023-07-09T01:21:15;20.10;99.90
21035;DHT22;10676;50.848;3.272;2023-07-09T01:23:46;20.00;99.90
21035;DHT22;10676;50.848;3.272;2023-07-09T01:26:14;20.00;99.90
21035;DHT22;10676;50.848;3.272;2023-07-09T01:28:41;20.00;99.90
21035;DHT22;10676;50.848;3.272;2023-07-09T01:31:09;20.00;99.90
21035;DHT22;10676;50.848;3.272;2023-07-09T01:33:37;20.10;99.90
21035;DHT22;10676;50.848;3.272;2023-07-09T01:36:06;20.10;99.90
21035;DHT22;10676;50.848;3.272;2023-07-09T01:38:32;20.30;99.90
21035;DHT22;10676;50.848;3.272;2023-07-09T01:40:59;20.30;99.90
21035;DHT22;10676;50.848;3.272;2023-07-09T01:43:26;20.40;99.90
21035;DHT22;10676;50.848;3.272;2023-07-09T01:45:52;20.50;99.90
21035;DHT22;10676;50.848;3.272;2023-07-09T01:48:18;20.50;99.90
21035;DHT22;10676;50.848;3.272;2023-07-09T01:50:46;20.60;99.90
21035;DHT22;10676;50.848;3.272;2023-07-09T01:53:16;20.70;99.90
21035;DHT22;10676;50.848;3.272;2023-07-09T01:55:43;20.80;99.90
21035;DHT22;10676;50.848;3.272;2023-07-09T01:58:10;20.90;99.90
21035;DHT22;10676;50.848;3.272;2023-07-09T02:00:37;21.00;99.90
21035;DHT22;10676;50.848;3.272;2023-07-09T02:03:04;21.10;99.90
21035;DHT22;10676;50.848;3.272;2023-07-09T02:05:33;21.20;99.90
21035;DHT22;10676;50.848;3.272;2023-07-09T02:07:59;21.20;99.90
21035;DHT22;10676;50.848;3.272;2023-07-09T02:10:25;21.30;99.90
21035;DHT22;10676;50.848;3.272;2023-07-09T02:12:51;21.20;99.90
21035;DHT22;10676;50.848;3.272;2023-07-09T02:15:16;21.20;99.90
21035;DHT22;10676;50.848;3.272;2023-07-09T02:17:43;21.10;99.90
21035;DHT22;10676;50.848;3.272;2023-07-09T02:20:09;21.00;99.90
21035;DHT22;10676;50.848;3.272;2023-07-09T02:22:36;21.00;99.90
21035;DHT22;10676;50.848;3.272;2023-07-09T02:25:03;20.90;99.90
21035;DHT22;10676;50.848;3.272;2023-07-09T02:27:29;20.80;99.90
21035;DHT22;10676;50.848;3.272;2023-07-09T02:29:54;20.70;99.90
21035;DHT22;10676;50.848;3.272;2023-07-09T02:32:24;20.50;99.90
21035;DHT22;10676;50.848;3.272;2023-07-09T02:34:51;20.40;99.90
21035;DHT22;10676;50.848;3.272;2023-07-09T02:37:23;20.40;99.90
21035;DHT22;10676;50.848;3.272;2023-07-09T02:39:49;20.30;99.90
21035;DHT22;10676;50.848;3.272;2023-07-09T02:42:18;20.20;99.90
21035;DHT22;10676;50.848;3.272;2023-07-09T02:44:44;20.00;99.90
21035;DHT22;10676;50.848;3.272;2023-07-09T02:47:11;20.10;99.90
21035;DHT22;10676;50.848;3.272;2023-07-09T02:49:37;20.00;99.90
21035;DHT22;10676;50.848;3.272;2023-07-09T02:52:03;20.00;99.90
21035;DHT22;10676;50.848;3.272;2023-07-09T02:54:29;20.00;99.90
21035;DHT22;10676;50.848;3.272;2023-07-09T02:56:55;19.90;99.90
21035;DHT22;10676;50.848;3.272;2023-07-09T02:59:21;19.90;99.90
21035;DHT22;10676;50.848;3.272;2023-07-09T03:01:47;19.90;99.90
21035;DHT22;10676;50.848;3.272;2023-07-09T03:04:15;19.80;99.90
21035;DHT22;10676;50.848;3.272;2023-07-09T03:06:41;19.80;99.90
21035;DHT22;10676;50.848;3.272;2023-07-09T03:09:08;19.70;99.90
21035;DHT22;10676;50.848;3.272;2023-07-09T03:11:35;19.70;99.90
21035;DHT22;10676;50.848;3.272;2023-07-09T03:14:02;19.70;99.90
21035;DHT22;10676;50.848;3.272;2023-07-09T03:16:28;19.60;99.90
21035;DHT22;10676;50.848;3.272;2023-07-09T03:18:55;19.50;99.90
21035;DHT22;10676;50.848;3.272;2023-07-09T03:21:22;19.50;99.90
21035;DHT22;10676;50.848;3.272;2023-07-09T03:23:48;19.50;99.90
21035;DHT22;10676;50.848;3.272;2023-07-09T03:26:13;19.40;99.90
21035;DHT22;10676;50.848;3.272;2023-07-09T03:28:40;19.40;99.90
21035;DHT22;10676;50.848;3.272;2023-07-09T03:31:06;19.40;99.90
21035;DHT22;10676;50.848;3.272;2023-07-09T03:33:32;19.40;99.90
21035;DHT22;10676;50.848;3.272;2023-07-09T03:35:58;19.40;99.90
21035;DHT22;10676;50.848;3.272;2023-07-09T03:38:23;19.40;99.90
21035;DHT22;10676;50.848;3.272;2023-07-09T03:40:53;19.40;99.90
21035;DHT22;10676;50.848;3.272;2023-07-09T03:43:20;19.40;99.90
21035;DHT22;10676;50.848;3.272;2023-07-09T03:45:46;19.40;99.90
21035;DHT22;10676;50.848;3.272;2023-07-09T03:48:13;19.40;99.90
21035;DHT22;10676;50.848;3.272;2023-07-09T03:50:39;19.40;99.90
21035;DHT22;10676;50.848;3.272;2023-07-09T03:53:05;19.50;99.90
21035;DHT22;10676;50.848;3.272;2023-07-09T03:55:33;19.50;99.90
21035;DHT22;10676;50.848;3.272;2023-07-09T03:57:59;19.50;99.90
21035;DHT22;10676;50.848;3.272;2023-07-09T04:00:25;19.60;99.90
21035;DHT22;10676;50.848;3.272;2023-07-09T04:02:51;19.60;99.90
21035;DHT22;10676;50.848;3.272;2023-07-09T04:05:17;19.70;99.90
21035;DHT22;10676;50.848;3.272;2023-07-09T04:07:44;19.70;99.90
21035;DHT22;10676;50.848;3.272;2023-07-09T04:10:10;19.80;99.90
21035;DHT22;10676;50.848;3.272;2023-07-09T04:12:36;19.90;99.90
21035;DHT22;10676;50.848;3.272;2023-07-09T04:15:03;19.90;99.90
21035;DHT22;10676;50.848;3.272;2023-07-09T04:17:29;19.90;99.90
21035;DHT22;10676;50.848;3.272;2023-07-09T04:19:55;19.90;99.90
21035;DHT22;10676;50.848;3.272;2023-07-09T04:22:20;20.00;99.90
21035;DHT22;10676;50.848;3.272;2023-07-09T04:24:46;20.10;99.90
21035;DHT22;10676;50.848;3.272;2023-07-09T04:27:13;20.20;99.90
21035;DHT22;10676;50.848;3.272;2023-07-09T04:29:40;20.30;99.90
21035;DHT22;10676;50.848;3.272;2023-07-09T04:32:06;20.40;99.90
21035;DHT22;10676;50.848;3.272;2023-07-09T04:34:32;20.50;99.90
21035;DHT22;10676;50.848;3.272;2023-07-09T04:36:58;20.60;99.90
21035;DHT22;10676;50.848;3.272;2023-07-09T04:39:24;20.80;99.90
21035;DHT22;10676;50.848;3.272;2023-07-09T04:41:50;20.90;99.90
21035;DHT22;10676;50.848;3.272;2023-07-09T04:44:16;21.00;99.90
21035;DHT22;10676;50.848;3.272;2023-07-09T04:46:42;21.10;99.90
21035;DHT22;10676;50.848;3.272;2023-07-09T04:49:08;21.20;99.90
21035;DHT22;10676;50.848;3.272;2023-07-09T04:51:34;21.30;99.90
21035;DHT22;10676;50.848;3.272;2023-07-09T04:53:59;21.50;99.90
21035;DHT22;10676;50.848;3.272;2023-07-09T04:56:29;21.60;99.90
21035;DHT22;10676;50.848;3.272;2023-07-09T04:58:56;21.80;99.90
21035;DHT22;10676;50.848;3.272;2023-07-09T05:01:21;21.90;99.90
21035;DHT22;10676;50.848;3.272;2023-07-09T05:03:47;22.10;99.90
21035;DHT22;10676;50.848;3.272;2023-07-09T05:06:13;22.20;99.90
21035;DHT22;10676;50.848;3.272;2023-07-09T05:08:39;22.30;99.90
21035;DHT22;10676;50.848;3.272;2023-07-09T05:11:09;22.40;99.90
21035;DHT22;10676;50.848;3.272;2023-07-09T05:13:36;22.60;99.90
21035;DHT22;10676;50.848;3.272;2023-07-09T05:16:02;22.70;99.90
21035;DHT22;10676;50.848;3.272;2023-07-09T05:18:27;22.90;99.90
21035;DHT22;10676;50.848;3.272;2023-07-09T05:20:55;23.00;99.90
21035;DHT22;10676;50.848;3.272;2023-07-09T05:23:23;23.20;99.90
21035;DHT22;10676;50.848;3.272;2023-07-09T05:25:55;23.30;99.90
21035;DHT22;10676;50.848;3.272;2023-07-09T05:28:20;23.40;99.90
21035;DHT22;10676;50.848;3.272;2023-07-09T05:30:46;23.50;99.90
21035;DHT22;10676;50.848;3.272;2023-07-09T05:33:12;23.70;99.90
21035;DHT22;10676;50.848;3.272;2023-07-09T05:35:37;23.80;99.90
21035;DHT22;10676;50.848;3.272;2023-07-09T05:38:03;24.10;99.90
21035;DHT22;10676;50.848;3.272;2023-07-09T05:40:29;24.30;99.90
21035;DHT22;10676;50.848;3.272;2023-07-09T05:42:55;24.60;99.90
21035;DHT22;10676;50.848;3.272;2023-07-09T05:45:21;25.00;99.90
21035;DHT22;10676;50.848;3.272;2023-07-09T05:47:46;25.30;99.90
21035;DHT22;10676;50.848;3.272;2023-07-09T05:50:12;25.90;99.90
21035;DHT22;10676;50.848;3.272;2023-07-09T05:52:38;26.40;99.90
21035;DHT22;10676;50.848;3.272;2023-07-09T05:55:04;26.80;99.90
21035;DHT22;10676;50.848;3.272;2023-07-09T05:57:29;27.40;99.90
21035;DHT22;10676;50.848;3.272;2023-07-09T05:59:55;27.90;99.90
21035;DHT22;10676;50.848;3.272;2023-07-09T06:02:21;28.20;99.90
21035;DHT22;10676;50.848;3.272;2023-07-09T06:04:48;28.40;99.90
21035;DHT22;10676;50.848;3.272;2023-07-09T06:07:17;28.60;99.90
21035;DHT22;10676;50.848;3.272;2023-07-09T06:09:45;28.70;99.90
21035;DHT22;10676;50.848;3.272;2023-07-09T06:12:12;28.80;99.90
21035;DHT22;10676;50.848;3.272;2023-07-09T06:14:38;28.90;99.90
21035;DHT22;10676;50.848;3.272;2023-07-09T06:17:04;29.40;99.90
21035;DHT22;10676;50.848;3.272;2023-07-09T06:19:30;30.10;99.90
21035;DHT22;10676;50.848;3.272;2023-07-09T06:21:57;30.70;99.90
21035;DHT22;10676;50.848;3.272;2023-07-09T06:24:24;31.20;99.90
21035;DHT22;10676;50.848;3.272;2023-07-09T06:26:49;31.40;99.90
21035;DHT22;10676;50.848;3.272;2023-07-09T06:29:15;31.90;99.90
21035;DHT22;10676;50.848;3.272;2023-07-09T06:31:41;32.20;99.90
21035;DHT22;10676;50.848;3.272;2023-07-09T06:34:08;32.30;99.60
21035;DHT22;10676;50.848;3.272;2023-07-09T06:36:35;32.20;99.20
21035;DHT22;10676;50.848;3.272;2023-07-09T06:39:01;31.70;99.70
21035;DHT22;10676;50.848;3.272;2023-07-09T06:41:27;31.40;99.90
21035;DHT22;10676;50.848;3.272;2023-07-09T06:43:52;31.20;99.90
21035;DHT22;10676;50.848;3.272;2023-07-09T06:46:19;31.50;99.90
21035;DHT22;10676;50.848;3.272;2023-07-09T06:48:45;32.00;99.20
21035;DHT22;10676;50.848;3.272;2023-07-09T06:51:12;32.60;97.90
21035;DHT22;10676;50.848;3.272;2023-07-09T06:53:37;33.30;96.50
21035;DHT22;10676;50.848;3.272;2023-07-09T06:56:03;34.00;94.60
21035;DHT22;10676;50.848;3.272;2023-07-09T06:58:31;34.50;93.00
21035;DHT22;10676;50.848;3.272;2023-07-09T07:01:04;34.80;92.10
21035;DHT22;10676;50.848;3.272;2023-07-09T07:03:31;35.00;91.10
21035;DHT22;10676;50.848;3.272;2023-07-09T07:05:57;35.10;90.00
21035;DHT22;10676;50.848;3.272;2023-07-09T07:08:25;35.30;88.70
21035;DHT22;10676;50.848;3.272;2023-07-09T07:10:58;35.50;87.30
21035;DHT22;10676;50.848;3.272;2023-07-09T07:13:45;35.70;85.70
21035;DHT22;10676;50.848;3.272;2023-07-09T07:16:13;35.80;85.10
21035;DHT22;10676;50.848;3.272;2023-07-09T07:18:39;35.60;83.90
21035;DHT22;10676;50.848;3.272;2023-07-09T07:21:05;35.80;83.00
21035;DHT22;10676;50.848;3.272;2023-07-09T07:23:31;35.90;81.50
21035;DHT22;10676;50.848;3.272;2023-07-09T07:25:57;36.10;81.00
21035;DHT22;10676;50.848;3.272;2023-07-09T07:28:23;36.20;79.70
21035;DHT22;10676;50.848;3.272;2023-07-09T07:30:58;36.40;79.20
21035;DHT22;10676;50.848;3.272;2023-07-09T07:33:24;36.60;78.50
21035;DHT22;10676;50.848;3.272;2023-07-09T07:35:50;36.60;77.50
21035;DHT22;10676;50.848;3.272;2023-07-09T07:38:15;36.90;76.20
21035;DHT22;10676;50.848;3.272;2023-07-09T07:40:44;37.50;74.50
21035;DHT22;10676;50.848;3.272;2023-07-09T07:43:10;38.10;72.30
21035;DHT22;10676;50.848;3.272;2023-07-09T07:45:39;38.50;69.80
21035;DHT22;10676;50.848;3.272;2023-07-09T07:48:05;38.80;68.00
21035;DHT22;10676;50.848;3.272;2023-07-09T07:50:31;39.20;67.10
21035;DHT22;10676;50.848;3.272;2023-07-09T07:52:56;39.40;65.00
21035;DHT22;10676;50.848;3.272;2023-07-09T07:55:22;39.40;63.00
21035;DHT22;10676;50.848;3.272;2023-07-09T07:57:48;39.40;63.10
21035;DHT22;10676;50.848;3.272;2023-07-09T08:00:14;39.40;62.10
21035;DHT22;10676;50.848;3.272;2023-07-09T08:02:40;39.50;60.70
21035;DHT22;10676;50.848;3.272;2023-07-09T08:05:06;39.60;60.50
21035;DHT22;10676;50.848;3.272;2023-07-09T08:07:32;39.80;59.70
21035;DHT22;10676;50.848;3.272;2023-07-09T08:09:57;40.10;58.60
21035;DHT22;10676;50.848;3.272;2023-07-09T08:12:23;40.20;58.10
21035;DHT22;10676;50.848;3.272;2023-07-09T08:14:48;40.20;57.60
21035;DHT22;10676;50.848;3.272;2023-07-09T08:17:14;40.20;57.20
21035;DHT22;10676;50.848;3.272;2023-07-09T08:19:51;40.30;56.90
21035;DHT22;10676;50.848;3.272;2023-07-09T08:22:17;40.60;56.40
21035;DHT22;10676;50.848;3.272;2023-07-09T08:24:43;40.60;55.60
21035;DHT22;10676;50.848;3.272;2023-07-09T08:27:09;40.60;55.60
21035;DHT22;10676;50.848;3.272;2023-07-09T08:29:34;40.60;55.00
21035;DHT22;10676;50.848;3.272;2023-07-09T08:32:00;40.60;55.20
21035;DHT22;10676;50.848;3.272;2023-07-09T08:34:26;40.60;54.90
21035;DHT22;10676;50.848;3.272;2023-07-09T08:36:52;40.80;54.40
21035;DHT22;10676;50.848;3.272;2023-07-09T08:39:17;41.10;54.30
21035;DHT22;10676;50.848;3.272;2023-07-09T08:41:49;41.40;53.30
21035;DHT22;10676;50.848;3.272;2023-07-09T08:49:47;41.90;52.50
21035;DHT22;10676;50.848;3.272;2023-07-09T08:52:30;41.40;53.40
21035;DHT22;10676;50.848;3.272;2023-07-09T08:54:58;40.80;54.10
21035;DHT22;10676;50.848;3.272;2023-07-09T08:57:32;40.30;54.90
21035;DHT22;10676;50.848;3.272;2023-07-09T09:00:24;39.70;55.50
21035;DHT22;10676;50.848;3.272;2023-07-09T09:03:16;38.90;56.90
21035;DHT22;10676;50.848;3.272;2023-07-09T09:05:49;38.20;58.40
21035;DHT22;10676;50.848;3.272;2023-07-09T09:11:31;36.90;60.80
21035;DHT22;10676;50.848;3.272;2023-07-09T09:14:03;36.60;62.60
21035;DHT22;10676;50.848;3.272;2023-07-09T09:16:33;36.30;63.10
21035;DHT22;10676;50.848;3.272;2023-07-09T09:19:01;36.00;62.40
21035;DHT22;10676;50.848;3.272;2023-07-09T09:21:35;35.40;64.60
21035;DHT22;10676;50.848;3.272;2023-07-09T09:24:23;34.80;66.50
21035;DHT22;10676;50.848;3.272;2023-07-09T09:26:53;34.20;68.10
21035;DHT22;10676;50.848;3.272;2023-07-09T09:29:24;33.50;70.80
21035;DHT22;10676;50.848;3.272;2023-07-09T09:31:56;32.80;73.20
21035;DHT22;10676;50.848;3.272;2023-07-09T09:34:28;32.10;75.30
21035;DHT22;10676;50.848;3.272;2023-07-09T09:36:56;31.40;77.60
21035;DHT22;10676;50.848;3.272;2023-07-09T09:39:25;30.80;80.20
21035;DHT22;10676;50.848;3.272;2023-07-09T09:41:57;30.20;83.00
21035;DHT22;10676;50.848;3.272;2023-07-09T09:44:28;29.80;85.70
21035;DHT22;10676;50.848;3.272;2023-07-09T09:46:59;29.40;87.50
21035;DHT22;10676;50.848;3.272;2023-07-09T09:49:25;29.10;88.20
21035;DHT22;10676;50.848;3.272;2023-07-09T09:51:51;28.80;90.00
21035;DHT22;10676;50.848;3.272;2023-07-09T09:54:24;28.60;90.80
21035;DHT22;10676;50.848;3.272;2023-07-09T09:56:52;28.30;91.30
21035;DHT22;10676;50.848;3.272;2023-07-09T09:59:27;28.20;92.10
21035;DHT22;10676;50.848;3.272;2023-07-09T10:02:00;28.00;92.80
21035;DHT22;10676;50.848;3.272;2023-07-09T10:04:26;27.80;93.90
21035;DHT22;10676;50.848;3.272;2023-07-09T10:06:56;27.50;94.90
21035;DHT22;10676;50.848;3.272;2023-07-09T10:09:47;27.30;96.10
21035;DHT22;10676;50.848;3.272;2023-07-09T10:12:42;27.10;97.30
21035;DHT22;10676;50.848;3.272;2023-07-09T10:26:48;26.50;99.90
21035;DHT22;10676;50.848;3.272;2023-07-09T10:29:40;26.40;99.90
21035;DHT22;10676;50.848;3.272;2023-07-09T10:35:00;26.50;99.90
21035;DHT22;10676;50.848;3.272;2023-07-09T10:40:15;27.20;99.90
21035;DHT22;10676;50.848;3.272;2023-07-09T10:42:50;27.80;99.90
21035;DHT22;10676;50.848;3.272;2023-07-09T10:45:33;28.60;99.90
21035;DHT22;10676;50.848;3.272;2023-07-09T10:48:07;29.30;99.90
21035;DHT22;10676;50.848;3.272;2023-07-09T10:50:38;30.10;99.90
21035;DHT22;10676;50.848;3.272;2023-07-09T10:53:16;30.70;99.90
21035;DHT22;10676;50.848;3.272;2023-07-09T10:56:26;31.30;99.90
21035;DHT22;10676;50.848;3.272;2023-07-09T11:01:43;32.50;98.40
21035;DHT22;10676;50.848;3.272;2023-07-09T11:04:31;33.10;95.90
21035;DHT22;10676;50.848;3.272;2023-07-09T11:07:03;33.50;95.10
21035;DHT22;10676;50.848;3.272;2023-07-09T11:09:38;33.80;93.50
21035;DHT22;10676;50.848;3.272;2023-07-09T11:12:13;34.00;92.50
21035;DHT22;10676;50.848;3.272;2023-07-09T11:14:52;34.00;91.60
21035;DHT22;10676;50.848;3.272;2023-07-09T11:17:20;33.70;91.20
21035;DHT22;10676;50.848;3.272;2023-07-09T11:19:52;33.30;91.20
21035;DHT22;10676;50.848;3.272;2023-07-09T11:22:25;32.80;91.30
21035;DHT22;10676;50.848;3.272;2023-07-09T11:27:49;31.30;93.20
21035;DHT22;10676;50.848;3.272;2023-07-09T11:30:27;30.80;94.30
21035;DHT22;10676;50.848;3.272;2023-07-09T11:32:58;30.30;94.90
21035;DHT22;10676;50.848;3.272;2023-07-09T11:35:26;30.00;95.50
21035;DHT22;10676;50.848;3.272;2023-07-09T11:37:53;29.70;95.70
21035;DHT22;10676;50.848;3.272;2023-07-09T11:40:20;29.50;96.40
21035;DHT22;10676;50.848;3.272;2023-07-09T11:43:04;29.30;96.80
21035;DHT22;10676;50.848;3.272;2023-07-09T11:45:34;29.20;96.80
21035;DHT22;10676;50.848;3.272;2023-07-09T11:48:25;29.00;97.60
21035;DHT22;10676;50.848;3.272;2023-07-09T11:50:53;28.70;97.60
21035;DHT22;10676;50.848;3.272;2023-07-09T11:55:54;28.10;99.10
21035;DHT22;10676;50.848;3.272;2023-07-09T11:58:19;27.70;99.90
21035;DHT22;10676;50.848;3.272;2023-07-09T12:00:56;27.30;99.90
21035;DHT22;10676;50.848;3.272;2023-07-09T12:03:31;26.80;99.90
21035;DHT22;10676;50.848;3.272;2023-07-09T12:06:04;26.20;99.90
21035;DHT22;10676;50.848;3.272;2023-07-09T12:08:38;25.40;99.90
21035;DHT22;10676;50.848;3.272;2023-07-09T12:11:04;24.70;99.90
21035;DHT22;10676;50.848;3.272;2023-07-09T12:13:40;24.20;99.90
21035;DHT22;10676;50.848;3.272;2023-07-09T12:16:29;23.70;99.90
21035;DHT22;10676;50.848;3.272;2023-07-09T12:18:56;23.40;99.90
21035;DHT22;10676;50.848;3.272;2023-07-09T12:21:25;23.20;99.90
21035;DHT22;10676;50.848;3.272;2023-07-09T12:23:52;23.30;99.90
21035;DHT22;10676;50.848;3.272;2023-07-09T12:26:19;23.40;99.90
21035;DHT22;10676;50.848;3.272;2023-07-09T12:28:56;23.60;99.90
21035;DHT22;10676;50.848;3.272;2023-07-09T12:31:28;24.20;99.90
21035;DHT22;10676;50.848;3.272;2023-07-09T12:33:56;25.00;99.90
21035;DHT22;10676;50.848;3.272;2023-07-09T12:36:24;25.90;99.90
21035;DHT22;10676;50.848;3.272;2023-07-09T12:38:53;26.80;99.90
21035;DHT22;10676;50.848;3.272;2023-07-09T12:41:43;27.80;99.90
21035;DHT22;10676;50.848;3.272;2023-07-09T12:44:20;28.70;99.90
21035;DHT22;10676;50.848;3.272;2023-07-09T12:46:47;29.40;99.90
21035;DHT22;10676;50.848;3.272;2023-07-09T12:49:25;29.80;99.90
21035;DHT22;10676;50.848;3.272;2023-07-09T12:51:53;30.10;99.90
21035;DHT22;10676;50.848;3.272;2023-07-09T12:54:20;30.20;99.90
21035;DHT22;10676;50.848;3.272;2023-07-09T12:56:53;30.40;99.90
21035;DHT22;10676;50.848;3.272;2023-07-09T12:59:25;30.40;99.90
21035;DHT22;10676;50.848;3.272;2023-07-09T13:04:36;30.20;99.90
21035;DHT22;10676;50.848;3.272;2023-07-09T13:07:02;30.10;99.90
21035;DHT22;10676;50.848;3.272;2023-07-09T13:09:28;30.00;99.90
21035;DHT22;10676;50.848;3.272;2023-07-09T13:11:55;29.80;99.90
21035;DHT22;10676;50.848;3.272;2023-07-09T13:14:26;29.60;99.90
21035;DHT22;10676;50.848;3.272;2023-07-09T13:16:53;29.50;99.90
21035;DHT22;10676;50.848;3.272;2023-07-09T13:19:26;29.50;99.90
21035;DHT22;10676;50.848;3.272;2023-07-09T13:21:52;29.50;99.90
21035;DHT22;10676;50.848;3.272;2023-07-09T13:24:27;29.50;99.90
21035;DHT22;10676;50.848;3.272;2023-07-09T13:26:53;29.50;99.90
21035;DHT22;10676;50.848;3.272;2023-07-09T13:29:20;29.40;99.90
21035;DHT22;10676;50.848;3.272;2023-07-09T13:31:47;29.20;99.90
21035;DHT22;10676;50.848;3.272;2023-07-09T13:34:22;29.00;99.90
21035;DHT22;10676;50.848;3.272;2023-07-09T13:36:49;28.80;99.90
21035;DHT22;10676;50.848;3.272;2023-07-09T13:39:15;28.80;99.90
21035;DHT22;10676;50.848;3.272;2023-07-09T13:41:46;28.80;99.90
21035;DHT22;10676;50.848;3.272;2023-07-09T13:44:20;29.10;99.90
21035;DHT22;10676;50.848;3.272;2023-07-09T13:46:47;29.50;99.90
21035;DHT22;10676;50.848;3.272;2023-07-09T13:49:15;30.00;99.90
21035;DHT22;10676;50.848;3.272;2023-07-09T13:51:42;30.60;99.90
21035;DHT22;10676;50.848;3.272;2023-07-09T13:54:29;31.30;99.90
21035;DHT22;10676;50.848;3.272;2023-07-09T13:57:01;32.00;99.90
21035;DHT22;10676;50.848;3.272;2023-07-09T13:59:28;32.50;99.90
21035;DHT22;10676;50.848;3.272;2023-07-09T14:01:56;32.70;99.90
21035;DHT22;10676;50.848;3.272;2023-07-09T14:04:24;32.80;99.90
21035;DHT22;10676;50.848;3.272;2023-07-09T14:06:50;32.70;99.50
21035;DHT22;10676;50.848;3.272;2023-07-09T14:09:16;32.60;98.70
21035;DHT22;10676;50.848;3.272;2023-07-09T14:11:45;32.40;98.20
21035;DHT22;10676;50.848;3.272;2023-07-09T14:14:21;32.10;98.50
21035;DHT22;10676;50.848;3.272;2023-07-09T14:16:48;31.80;98.60
21035;DHT22;10676;50.848;3.272;2023-07-09T14:19:16;31.60;99.10
21035;DHT22;10676;50.848;3.272;2023-07-09T14:21:42;31.60;99.10
21035;DHT22;10676;50.848;3.272;2023-07-09T14:24:26;31.40;98.90
21035;DHT22;10676;50.848;3.272;2023-07-09T14:26:53;31.40;99.20
21035;DHT22;10676;50.848;3.272;2023-07-09T14:29:20;31.50;98.40
21035;DHT22;10676;50.848;3.272;2023-07-09T14:31:46;31.60;97.50
21035;DHT22;10676;50.848;3.272;2023-07-09T14:36:38;31.80;96.80
21035;DHT22;10676;50.848;3.272;2023-07-09T14:39:11;31.70;96.30
21035;DHT22;10676;50.848;3.272;2023-07-09T14:41:37;31.60;95.90
21035;DHT22;10676;50.848;3.272;2023-07-09T14:44:02;31.40;95.80
21035;DHT22;10676;50.848;3.272;2023-07-09T14:46:33;31.20;95.60
21035;DHT22;10676;50.848;3.272;2023-07-09T14:48:59;31.10;95.40
21035;DHT22;10676;50.848;3.272;2023-07-09T14:51:25;30.90;95.30
21035;DHT22;10676;50.848;3.272;2023-07-09T14:53:51;30.70;95.00
21035;DHT22;10676;50.848;3.272;2023-07-09T14:56:16;30.50;95.50
21035;DHT22;10676;50.848;3.272;2023-07-09T14:58:42;30.40;95.50
21035;DHT22;10676;50.848;3.272;2023-07-09T15:01:14;30.30;95.50
21035;DHT22;10676;50.848;3.272;2023-07-09T15:03:40;30.30;95.40
21035;DHT22;10676;50.848;3.272;2023-07-09T15:06:06;30.40;95.40
21035;DHT22;10676;50.848;3.272;2023-07-09T15:08:32;30.50;95.70
21035;DHT22;10676;50.848;3.272;2023-07-09T15:10:58;30.70;95.30
21035;DHT22;10676;50.848;3.272;2023-07-09T15:13:32;30.80;94.90
21035;DHT22;10676;50.848;3.272;2023-07-09T15:15:59;30.80;94.50
21035;DHT22;10676;50.848;3.272;2023-07-09T15:18:25;30.60;94.90
21035;DHT22;10676;50.848;3.272;2023-07-09T15:21:02;30.40;95.30
21035;DHT22;10676;50.848;3.272;2023-07-09T15:23:28;30.50;95.50
21035;DHT22;10676;50.848;3.272;2023-07-09T15:25:55;30.50;95.10
21035;DHT22;10676;50.848;3.272;2023-07-09T15:28:21;30.60;94.60
21035;DHT22;10676;50.848;3.272;2023-07-09T15:30:47;30.60;94.40
21035;DHT22;10676;50.848;3.272;2023-07-09T15:33:17;30.70;94.00
21035;DHT22;10676;50.848;3.272;2023-07-09T15:35:45;30.70;93.40
21035;DHT22;10676;50.848;3.272;2023-07-09T15:40:43;30.80;92.30
21035;DHT22;10676;50.848;3.272;2023-07-09T15:43:14;30.80;91.50
21035;DHT22;10676;50.848;3.272;2023-07-09T15:45:45;30.80;91.20
21035;DHT22;10676;50.848;3.272;2023-07-09T15:48:35;30.80;91.00
21035;DHT22;10676;50.848;3.272;2023-07-09T15:51:03;30.80;91.10
21035;DHT22;10676;50.848;3.272;2023-07-09T15:53:30;30.90;90.60
21035;DHT22;10676;50.848;3.272;2023-07-09T15:56:02;30.90;90.70
21035;DHT22;10676;50.848;3.272;2023-07-09T15:58:41;31.20;90.50
21035;DHT22;10676;50.848;3.272;2023-07-09T16:01:13;31.50;89.80
21035;DHT22;10676;50.848;3.272;2023-07-09T16:03:53;31.70;89.20
21035;DHT22;10676;50.848;3.272;2023-07-09T16:06:19;32.00;87.90
21035;DHT22;10676;50.848;3.272;2023-07-09T16:08:46;32.20;85.80
21035;DHT22;10676;50.848;3.272;2023-07-09T16:11:20;32.20;86.00
21035;DHT22;10676;50.848;3.272;2023-07-09T16:13:46;32.20;85.60
21035;DHT22;10676;50.848;3.272;2023-07-09T16:16:18;32.20;84.30
21035;DHT22;10676;50.848;3.272;2023-07-09T16:18:44;32.20;84.50
21035;DHT22;10676;50.848;3.272;2023-07-09T16:21:24;32.30;83.70
21035;DHT22;10676;50.848;3.272;2023-07-09T16:23:51;32.30;83.30
21035;DHT22;10676;50.848;3.272;2023-07-09T16:26:17;32.00;83.80
21035;DHT22;10676;50.848;3.272;2023-07-09T16:28:43;31.70;83.90